Terminal Aerodrome Forecast
Issued by NWS Upton, NY

Home | Current Version | Previous Version | Text Only | Print | Product List | Glossary On
Versions: 1 2 3 4 5 6 7 8 9 10 11 12 13 14 15 16 17 18 19 20 21 22 23 24 25 26 27 28
113
FTUS41 KOKX 191957 AAA
TAFLGA
TAF AMD
KLGA 191957Z 1920/2018 30012G20KT P6SM BKN100
     FM192300 33010KT P6SM SCT100 SCT250
     FM201400 35013G21KT P6SM SKC=

USA.gov is the U.S. government's official web portal to all federal, state and local government web resources and services.